Portada
METAR-TAF:

METAR-TAF

Aeroports :

Dakar, Senegal

latitud: 14-44N, longitud: 017-30W, altitud: 27 m

Observació

L'informe es va fer fa 40 minuts, a les 20:00 UTC
Vent 10 kt del Nord
Temperatura 23°C
Humitat 83%
Pressió 1015 hPa
Visibilitat 10 km o més
Escasses núvols a una alçada de 1000 ft

METAR: GOOY 012000Z 36010KT 9999 FEW010 23/20 Q1015

Hora: 20:40 (20:40 UTC)

Pronòstic

L'informe es va fer fa 3 hores i 10 minuts, a les 17:30 UTC
Pronòstic vàlid del 01 a les 18 UTC al 02 a les 24 UTC
Vent 12 kt del Nord
Visibilitat 10 km o més
sense núvols per sota de 1500 mi sense presència de cumulonimbus.

TAF: GOOY 011730Z 0118/0224 36012KT CAVOK

Observacions i pronòstics meteorològics de més de 4000 aeroports (METAR i TAF).

Les estacions disponibles són els punts grocs i vermells al mapa.

Posi el ratolí al punt desitjat per veure el nom de l'estació.

Feu clic per veure les observacions i els pronòstics meteorològics.

Per canviar el mapa: feu clic els botons verds amb una creu de color negre per apropar; al botó verd amb un guió per allunyar la imatge; o en les fletxes verdes per a mapes adjacents.


METAR-TAF: